Panamoka, New York
Current Conditions -  °F | °C
As of 10:56 AM on Sunday 25 Jan 2015 (Local Time) from KHWV Reporting Station
Few Clouds Few Clouds  
Wind Chill: 32°   Ceiling: Unl
Heat Index: 40°   Visibility: 10mi
Dew Point: 24°   Wind: 15mph
Humidity: 53%   Direction: 280°W
Pressure: 29.73"   Gusts: 31mph
Location:  40.8942°N, 72.8763°W
Report Text: KHWV 251556Z AUTO 28013G27KT 10SM FEW044 04/M04 A2973 RMK AO2 PK WND 26027/1549 SLP067 T00441044 TSNO
Loading
Personal Weather Stations






























Interactive Weather Map New forecast layout! Learn more

10-Day Weather Forecast

Advertisements
Track Severe Weather on mobile